sensor_id;sensor_type;location;lat;lon;timestamp;P1;durP1;ratioP1;P2;durP2;ratioP2
63112;SDS011;49206;48.020;21.378;2023-10-31T00:00:25;8.07;;;5.88;;
63112;SDS011;49206;48.020;21.378;2023-10-31T00:01:29;14.00;;;6.97;;
63112;SDS011;49206;48.020;21.378;2023-10-31T00:02:31;9.25;;;5.88;;
63112;SDS011;49206;48.020;21.378;2023-10-31T00:03:34;8.38;;;6.20;;
63112;SDS011;49206;48.020;21.378;2023-10-31T00:04:37;9.52;;;5.82;;
63112;SDS011;49206;48.020;21.378;2023-10-31T00:05:40;11.07;;;6.35;;
63112;SDS011;49206;48.020;21.378;2023-10-31T00:06:43;9.35;;;5.78;;
63112;SDS011;49206;48.020;21.378;2023-10-31T00:07:47;12.57;;;6.35;;
63112;SDS011;49206;48.020;21.378;2023-10-31T00:08:50;11.43;;;6.28;;
63112;SDS011;49206;48.020;21.378;2023-10-31T00:09:53;12.20;;;6.60;;
63112;SDS011;49206;48.020;21.378;2023-10-31T00:10:56;14.48;;;6.60;;
63112;SDS011;49206;48.020;21.378;2023-10-31T00:12:03;10.88;;;6.10;;
63112;SDS011;49206;48.020;21.378;2023-10-31T00:13:05;12.20;;;6.22;;
63112;SDS011;49206;48.020;21.378;2023-10-31T00:14:08;11.30;;;6.47;;
63112;SDS011;49206;48.020;21.378;2023-10-31T00:16:34;11.00;;;6.20;;
63112;SDS011;49206;48.020;21.378;2023-10-31T00:17:37;12.05;;;6.15;;
63112;SDS011;49206;48.020;21.378;2023-10-31T00:18:40;10.90;;;6.53;;
63112;SDS011;49206;48.020;21.378;2023-10-31T00:19:43;10.38;;;6.22;;
63112;SDS011;49206;48.020;21.378;2023-10-31T00:20:46;11.95;;;6.43;;
63112;SDS011;49206;48.020;21.378;2023-10-31T00:21:49;13.82;;;6.82;;
63112;SDS011;49206;48.020;21.378;2023-10-31T00:22:52;10.15;;;6.75;;
63112;SDS011;49206;48.020;21.378;2023-10-31T00:23:56;9.93;;;7.38;;
63112;SDS011;49206;48.020;21.378;2023-10-31T00:24:58;11.90;;;7.05;;
63112;SDS011;49206;48.020;21.378;2023-10-31T00:26:01;11.98;;;6.80;;
63112;SDS011;49206;48.020;21.378;2023-10-31T00:27:04;10.13;;;6.55;;
63112;SDS011;49206;48.020;21.378;2023-10-31T00:28:07;11.38;;;6.63;;
63112;SDS011;49206;48.020;21.378;2023-10-31T00:29:10;11.38;;;7.00;;
63112;SDS011;49206;48.020;21.378;2023-10-31T00:30:13;10.15;;;6.47;;
63112;SDS011;49206;48.020;21.378;2023-10-31T00:31:16;13.05;;;6.28;;
63112;SDS011;49206;48.020;21.378;2023-10-31T00:32:19;10.77;;;7.30;;
63112;SDS011;49206;48.020;21.378;2023-10-31T00:33:22;10.23;;;6.93;;
63112;SDS011;49206;48.020;21.378;2023-10-31T00:34:25;9.32;;;6.40;;
63112;SDS011;49206;48.020;21.378;2023-10-31T00:35:48;10.77;;;6.15;;
63112;SDS011;49206;48.020;21.378;2023-10-31T00:36:57;12.02;;;6.47;;
63112;SDS011;49206;48.020;21.378;2023-10-31T00:37:59;11.63;;;6.70;;
63112;SDS011;49206;48.020;21.378;2023-10-31T00:39:03;9.65;;;6.30;;
63112;SDS011;49206;48.020;21.378;2023-10-31T00:40:13;11.70;;;7.30;;
63112;SDS011;49206;48.020;21.378;2023-10-31T00:41:20;13.50;;;6.78;;
63112;SDS011;49206;48.020;21.378;2023-10-31T00:42:22;12.90;;;7.03;;
63112;SDS011;49206;48.020;21.378;2023-10-31T00:43:25;12.55;;;6.35;;
63112;SDS011;49206;48.020;21.378;2023-10-31T00:44:28;11.35;;;6.75;;
63112;SDS011;49206;48.020;21.378;2023-10-31T00:45:31;12.18;;;6.32;;
63112;SDS011;49206;48.020;21.378;2023-10-31T00:46:54;11.80;;;6.88;;
63112;SDS011;49206;48.020;21.378;2023-10-31T00:47:58;12.52;;;6.13;;
63112;SDS011;49206;48.020;21.378;2023-10-31T00:49:02;10.95;;;6.28;;
63112;SDS011;49206;48.020;21.378;2023-10-31T00:51:50;11.57;;;6.28;;
63112;SDS011;49206;48.020;21.378;2023-10-31T00:53:05;12.35;;;7.38;;
63112;SDS011;49206;48.020;21.378;2023-10-31T00:54:18;13.25;;;6.85;;
63112;SDS011;49206;48.020;21.378;2023-10-31T00:55:21;13.80;;;8.00;;
63112;SDS011;49206;48.020;21.378;2023-10-31T00:56:24;12.82;;;8.50;;
63112;SDS011;49206;48.020;21.378;2023-10-31T00:57:27;12.70;;;7.93;;
63112;SDS011;49206;48.020;21.378;2023-10-31T00:58:30;10.25;;;7.63;;
63112;SDS011;49206;48.020;21.378;2023-10-31T00:59:33;12.10;;;7.15;;
63112;SDS011;49206;48.020;21.378;2023-10-31T01:00:36;15.60;;;9.63;;
63112;SDS011;49206;48.020;21.378;2023-10-31T01:01:40;14.20;;;8.73;;
63112;SDS011;49206;48.020;21.378;2023-10-31T01:02:43;13.00;;;7.65;;
63112;SDS011;49206;48.020;21.378;2023-10-31T01:03:46;11.40;;;7.18;;
63112;SDS011;49206;48.020;21.378;2023-10-31T01:04:48;11.52;;;7.55;;
63112;SDS011;49206;48.020;21.378;2023-10-31T01:05:52;12.77;;;7.50;;
63112;SDS011;49206;48.020;21.378;2023-10-31T01:06:58;11.45;;;7.53;;
63112;SDS011;49206;48.020;21.378;2023-10-31T01:08:01;11.10;;;7.22;;
63112;SDS011;49206;48.020;21.378;2023-10-31T01:09:03;9.55;;;6.00;;
63112;SDS011;49206;48.020;21.378;2023-10-31T01:10:06;11.23;;;6.40;;
63112;SDS011;49206;48.020;21.378;2023-10-31T01:11:09;11.88;;;6.50;;
63112;SDS011;49206;48.020;21.378;2023-10-31T01:12:12;15.88;;;8.32;;
63112;SDS011;49206;48.020;21.378;2023-10-31T01:13:15;14.02;;;7.97;;
63112;SDS011;49206;48.020;21.378;2023-10-31T01:14:20;12.68;;;8.18;;
63112;SDS011;49206;48.020;21.378;2023-10-31T01:15:23;14.25;;;8.02;;
63112;SDS011;49206;48.020;21.378;2023-10-31T01:16:26;13.30;;;8.75;;
63112;SDS011;49206;48.020;21.378;2023-10-31T01:17:29;16.83;;;10.02;;
63112;SDS011;49206;48.020;21.378;2023-10-31T01:18:32;15.43;;;9.32;;
63112;SDS011;49206;48.020;21.378;2023-10-31T01:19:35;16.98;;;8.38;;
63112;SDS011;49206;48.020;21.378;2023-10-31T01:20:38;13.48;;;8.57;;
63112;SDS011;49206;48.020;21.378;2023-10-31T01:21:41;13.48;;;8.35;;
63112;SDS011;49206;48.020;21.378;2023-10-31T01:22:44;15.95;;;8.50;;
63112;SDS011;49206;48.020;21.378;2023-10-31T01:23:47;13.55;;;6.55;;
63112;SDS011;49206;48.020;21.378;2023-10-31T01:24:49;11.00;;;6.88;;
63112;SDS011;49206;48.020;21.378;2023-10-31T01:25:52;12.65;;;8.13;;
63112;SDS011;49206;48.020;21.378;2023-10-31T01:26:55;10.65;;;7.78;;
63112;SDS011;49206;48.020;21.378;2023-10-31T01:27:58;15.10;;;7.80;;
63112;SDS011;49206;48.020;21.378;2023-10-31T01:29:01;14.68;;;7.93;;
63112;SDS011;49206;48.020;21.378;2023-10-31T01:30:04;11.90;;;6.82;;
63112;SDS011;49206;48.020;21.378;2023-10-31T01:31:07;11.23;;;7.03;;
63112;SDS011;49206;48.020;21.378;2023-10-31T01:32:10;11.35;;;6.70;;
63112;SDS011;49206;48.020;21.378;2023-10-31T01:33:23;16.73;;;7.03;;
63112;SDS011;49206;48.020;21.378;2023-10-31T01:34:26;8.63;;;5.72;;
63112;SDS011;49206;48.020;21.378;2023-10-31T01:35:32;8.93;;;6.22;;
63112;SDS011;49206;48.020;21.378;2023-10-31T01:36:35;12.07;;;6.05;;
63112;SDS011;49206;48.020;21.378;2023-10-31T01:37:38;12.63;;;6.75;;
63112;SDS011;49206;48.020;21.378;2023-10-31T01:38:40;12.38;;;6.53;;
63112;SDS011;49206;48.020;21.378;2023-10-31T01:39:44;11.68;;;6.90;;
63112;SDS011;49206;48.020;21.378;2023-10-31T01:40:50;11.48;;;6.95;;
63112;SDS011;49206;48.020;21.378;2023-10-31T01:41:53;11.95;;;6.90;;
63112;SDS011;49206;48.020;21.378;2023-10-31T01:42:57;13.68;;;6.55;;
63112;SDS011;49206;48.020;21.378;2023-10-31T01:44:00;10.90;;;5.85;;
63112;SDS011;49206;48.020;21.378;2023-10-31T01:45:02;11.15;;;6.60;;
63112;SDS011;49206;48.020;21.378;2023-10-31T01:46:07;10.05;;;6.35;;
63112;SDS011;49206;48.020;21.378;2023-10-31T01:47:10;10.63;;;5.70;;
63112;SDS011;49206;48.020;21.378;2023-10-31T01:48:12;9.15;;;6.18;;
63112;SDS011;49206;48.020;21.378;2023-10-31T01:49:15;10.20;;;5.95;;
63112;SDS011;49206;48.020;21.378;2023-10-31T01:50:19;8.68;;;6.05;;
63112;SDS011;49206;48.020;21.378;2023-10-31T01:51:22;9.35;;;5.75;;
63112;SDS011;49206;48.020;21.378;2023-10-31T01:52:27;8.27;;;5.28;;
63112;SDS011;49206;48.020;21.378;2023-10-31T01:53:31;11.20;;;5.65;;
63112;SDS011;49206;48.020;21.378;2023-10-31T01:54:37;9.20;;;5.90;;
63112;SDS011;49206;48.020;21.378;2023-10-31T01:55:44;9.43;;;5.70;;
63112;SDS011;49206;48.020;21.378;2023-10-31T01:56:48;9.75;;;5.93;;
63112;SDS011;49206;48.020;21.378;2023-10-31T01:57:53;11.80;;;5.80;;
63112;SDS011;49206;48.020;21.378;2023-10-31T01:58:56;12.55;;;6.25;;
63112;SDS011;49206;48.020;21.378;2023-10-31T01:59:59;9.73;;;5.88;;
63112;SDS011;49206;48.020;21.378;2023-10-31T02:01:02;12.98;;;6.20;;
63112;SDS011;49206;48.020;21.378;2023-10-31T02:02:06;10.30;;;6.55;;
63112;SDS011;49206;48.020;21.378;2023-10-31T02:03:10;10.68;;;6.30;;
63112;SDS011;49206;48.020;21.378;2023-10-31T02:04:13;11.43;;;6.35;;
63112;SDS011;49206;48.020;21.378;2023-10-31T02:05:16;10.93;;;6.32;;
63112;SDS011;49206;48.020;21.378;2023-10-31T02:06:23;11.93;;;6.97;;
63112;SDS011;49206;48.020;21.378;2023-10-31T02:07:28;12.00;;;7.03;;
63112;SDS011;49206;48.020;21.378;2023-10-31T02:08:33;8.52;;;6.13;;
63112;SDS011;49206;48.020;21.378;2023-10-31T02:09:36;12.13;;;6.05;;
63112;SDS011;49206;48.020;21.378;2023-10-31T02:10:39;14.25;;;6.65;;
63112;SDS011;49206;48.020;21.378;2023-10-31T02:11:42;13.93;;;6.53;;
63112;SDS011;49206;48.020;21.378;2023-10-31T02:12:45;9.35;;;6.35;;
63112;SDS011;49206;48.020;21.378;2023-10-31T02:13:48;9.15;;;6.13;;
63112;SDS011;49206;48.020;21.378;2023-10-31T02:14:51;9.90;;;6.25;;
63112;SDS011;49206;48.020;21.378;2023-10-31T02:15:54;9.23;;;6.22;;
63112;SDS011;49206;48.020;21.378;2023-10-31T02:16:57;12.10;;;6.68;;
63112;SDS011;49206;48.020;21.378;2023-10-31T02:18:00;10.23;;;6.68;;
63112;SDS011;49206;48.020;21.378;2023-10-31T02:19:03;11.02;;;6.10;;
63112;SDS011;49206;48.020;21.378;2023-10-31T02:20:06;17.08;;;6.32;;
63112;SDS011;49206;48.020;21.378;2023-10-31T02:21:09;12.63;;;6.38;;
63112;SDS011;49206;48.020;21.378;2023-10-31T02:22:12;12.68;;;6.28;;
63112;SDS011;49206;48.020;21.378;2023-10-31T02:23:15;12.38;;;6.88;;
63112;SDS011;49206;48.020;21.378;2023-10-31T02:24:18;11.23;;;7.40;;
63112;SDS011;49206;48.020;21.378;2023-10-31T02:25:21;12.82;;;6.75;;
63112;SDS011;49206;48.020;21.378;2023-10-31T02:26:28;13.85;;;6.78;;
63112;SDS011;49206;48.020;21.378;2023-10-31T02:27:34;9.70;;;5.93;;
63112;SDS011;49206;48.020;21.378;2023-10-31T02:28:37;11.48;;;7.22;;
63112;SDS011;49206;48.020;21.378;2023-10-31T02:29:40;9.20;;;5.90;;
63112;SDS011;49206;48.020;21.378;2023-10-31T02:30:43;9.25;;;6.90;;
63112;SDS011;49206;48.020;21.378;2023-10-31T02:31:46;13.80;;;6.82;;
63112;SDS011;49206;48.020;21.378;2023-10-31T02:33:52;14.07;;;6.47;;
63112;SDS011;49206;48.020;21.378;2023-10-31T02:34:55;9.90;;;6.55;;
63112;SDS011;49206;48.020;21.378;2023-10-31T02:35:59;12.90;;;6.55;;
63112;SDS011;49206;48.020;21.378;2023-10-31T02:37:02;11.23;;;6.47;;
63112;SDS011;49206;48.020;21.378;2023-10-31T02:38:04;9.57;;;7.20;;
63112;SDS011;49206;48.020;21.378;2023-10-31T02:40:11;8.65;;;5.57;;
63112;SDS011;49206;48.020;21.378;2023-10-31T02:41:14;10.02;;;6.32;;
63112;SDS011;49206;48.020;21.378;2023-10-31T02:42:17;9.52;;;6.03;;
63112;SDS011;49206;48.020;21.378;2023-10-31T02:43:21;11.15;;;6.90;;
63112;SDS011;49206;48.020;21.378;2023-10-31T02:44:23;13.38;;;6.25;;
63112;SDS011;49206;48.020;21.378;2023-10-31T02:45:26;12.30;;;7.10;;
63112;SDS011;49206;48.020;21.378;2023-10-31T02:46:29;11.40;;;6.65;;
63112;SDS011;49206;48.020;21.378;2023-10-31T02:47:32;16.90;;;6.40;;
63112;SDS011;49206;48.020;21.378;2023-10-31T02:48:34;10.35;;;6.10;;
63112;SDS011;49206;48.020;21.378;2023-10-31T02:49:41;10.25;;;6.25;;
63112;SDS011;49206;48.020;21.378;2023-10-31T02:50:44;12.27;;;7.25;;
63112;SDS011;49206;48.020;21.378;2023-10-31T02:51:46;8.57;;;6.60;;
63112;SDS011;49206;48.020;21.378;2023-10-31T02:52:50;10.15;;;6.03;;
63112;SDS011;49206;48.020;21.378;2023-10-31T02:53:53;11.40;;;6.85;;
63112;SDS011;49206;48.020;21.378;2023-10-31T02:54:55;9.63;;;6.70;;
63112;SDS011;49206;48.020;21.378;2023-10-31T02:55:58;9.93;;;6.38;;
63112;SDS011;49206;48.020;21.378;2023-10-31T02:57:01;10.45;;;5.85;;
63112;SDS011;49206;48.020;21.378;2023-10-31T02:58:05;9.73;;;6.28;;
63112;SDS011;49206;48.020;21.378;2023-10-31T02:59:07;9.73;;;6.00;;
63112;SDS011;49206;48.020;21.378;2023-10-31T03:00:10;11.65;;;6.50;;
63112;SDS011;49206;48.020;21.378;2023-10-31T03:01:13;12.65;;;5.90;;
63112;SDS011;49206;48.020;21.378;2023-10-31T03:02:16;12.07;;;6.55;;
63112;SDS011;49206;48.020;21.378;2023-10-31T03:03:19;10.85;;;5.80;;
63112;SDS011;49206;48.020;21.378;2023-10-31T03:04:22;13.20;;;7.15;;
63112;SDS011;49206;48.020;21.378;2023-10-31T03:05:28;8.63;;;6.43;;
63112;SDS011;49206;48.020;21.378;2023-10-31T03:06:31;12.13;;;6.82;;
63112;SDS011;49206;48.020;21.378;2023-10-31T03:07:33;11.27;;;5.70;;
63112;SDS011;49206;48.020;21.378;2023-10-31T03:08:36;8.73;;;6.32;;
63112;SDS011;49206;48.020;21.378;2023-10-31T03:09:39;10.60;;;6.15;;
63112;SDS011;49206;48.020;21.378;2023-10-31T03:10:43;13.07;;;6.55;;
63112;SDS011;49206;48.020;21.378;2023-10-31T03:11:45;11.82;;;6.30;;
63112;SDS011;49206;48.020;21.378;2023-10-31T03:12:47;9.63;;;6.50;;
63112;SDS011;49206;48.020;21.378;2023-10-31T03:13:50;12.55;;;7.00;;
63112;SDS011;49206;48.020;21.378;2023-10-31T03:14:53;9.98;;;6.53;;
63112;SDS011;49206;48.020;21.378;2023-10-31T03:15:57;12.35;;;6.72;;
63112;SDS011;49206;48.020;21.378;2023-10-31T03:17:00;12.10;;;6.05;;
63112;SDS011;49206;48.020;21.378;2023-10-31T03:18:03;12.25;;;6.65;;
63112;SDS011;49206;48.020;21.378;2023-10-31T03:19:06;10.82;;;5.95;;
63112;SDS011;49206;48.020;21.378;2023-10-31T03:20:10;17.77;;;7.07;;
63112;SDS011;49206;48.020;21.378;2023-10-31T03:21:13;10.50;;;7.05;;
63112;SDS011;49206;48.020;21.378;2023-10-31T03:24:23;9.23;;;6.47;;
63112;SDS011;49206;48.020;21.378;2023-10-31T03:25:25;13.80;;;6.35;;
63112;SDS011;49206;48.020;21.378;2023-10-31T03:26:28;13.98;;;7.45;;
63112;SDS011;49206;48.020;21.378;2023-10-31T03:27:31;12.02;;;6.78;;
63112;SDS011;49206;48.020;21.378;2023-10-31T03:28:34;9.32;;;6.72;;
63112;SDS011;49206;48.020;21.378;2023-10-31T03:29:37;11.27;;;6.97;;
63112;SDS011;49206;48.020;21.378;2023-10-31T03:30:41;11.95;;;7.63;;
63112;SDS011;49206;48.020;21.378;2023-10-31T03:31:44;11.15;;;6.78;;
63112;SDS011;49206;48.020;21.378;2023-10-31T03:32:46;15.05;;;7.05;;
63112;SDS011;49206;48.020;21.378;2023-10-31T03:33:49;14.82;;;7.43;;
63112;SDS011;49206;48.020;21.378;2023-10-31T03:34:52;12.85;;;7.30;;
63112;SDS011;49206;48.020;21.378;2023-10-31T03:35:57;14.63;;;7.45;;
63112;SDS011;49206;48.020;21.378;2023-10-31T03:37:00;16.52;;;7.53;;
63112;SDS011;49206;48.020;21.378;2023-10-31T03:38:02;13.35;;;7.95;;
63112;SDS011;49206;48.020;21.378;2023-10-31T03:39:05;15.77;;;7.97;;
63112;SDS011;49206;48.020;21.378;2023-10-31T03:40:08;13.40;;;7.78;;
63112;SDS011;49206;48.020;21.378;2023-10-31T03:41:11;14.90;;;8.30;;
63112;SDS011;49206;48.020;21.378;2023-10-31T03:42:15;14.18;;;8.23;;
63112;SDS011;49206;48.020;21.378;2023-10-31T03:43:18;13.98;;;7.72;;
63112;SDS011;49206;48.020;21.378;2023-10-31T03:44:23;16.20;;;7.38;;
63112;SDS011;49206;48.020;21.378;2023-10-31T03:45:26;12.90;;;7.13;;
63112;SDS011;49206;48.020;21.378;2023-10-31T03:46:30;11.85;;;7.40;;
63112;SDS011;49206;48.020;21.378;2023-10-31T03:47:33;12.50;;;6.47;;
63112;SDS011;49206;48.020;21.378;2023-10-31T03:48:36;14.15;;;7.65;;
63112;SDS011;49206;48.020;21.378;2023-10-31T03:49:41;12.60;;;7.10;;
63112;SDS011;49206;48.020;21.378;2023-10-31T03:50:44;12.50;;;6.68;;
63112;SDS011;49206;48.020;21.378;2023-10-31T03:51:47;10.90;;;6.80;;
63112;SDS011;49206;48.020;21.378;2023-10-31T03:52:50;11.48;;;6.65;;
63112;SDS011;49206;48.020;21.378;2023-10-31T03:53:54;10.68;;;6.68;;
63112;SDS011;49206;48.020;21.378;2023-10-31T03:54:57;12.35;;;7.20;;
63112;SDS011;49206;48.020;21.378;2023-10-31T03:56:00;10.52;;;6.85;;
63112;SDS011;49206;48.020;21.378;2023-10-31T03:57:03;12.68;;;6.70;;
63112;SDS011;49206;48.020;21.378;2023-10-31T03:58:06;13.43;;;7.53;;
63112;SDS011;49206;48.020;21.378;2023-10-31T03:59:17;10.25;;;6.50;;
63112;SDS011;49206;48.020;21.378;2023-10-31T04:00:20;11.75;;;6.28;;
63112;SDS011;49206;48.020;21.378;2023-10-31T04:01:23;13.38;;;6.82;;
63112;SDS011;49206;48.020;21.378;2023-10-31T04:02:26;11.48;;;6.97;;
63112;SDS011;49206;48.020;21.378;2023-10-31T04:03:28;15.15;;;7.35;;
63112;SDS011;49206;48.020;21.378;2023-10-31T04:04:32;10.43;;;6.15;;
63112;SDS011;49206;48.020;21.378;2023-10-31T04:05:34;12.63;;;6.72;;
63112;SDS011;49206;48.020;21.378;2023-10-31T04:06:38;10.48;;;6.95;;
63112;SDS011;49206;48.020;21.378;2023-10-31T04:07:47;11.60;;;6.97;;
63112;SDS011;49206;48.020;21.378;2023-10-31T04:08:51;11.77;;;6.68;;
63112;SDS011;49206;48.020;21.378;2023-10-31T04:09:55;12.27;;;7.25;;
63112;SDS011;49206;48.020;21.378;2023-10-31T04:10:58;10.55;;;6.03;;
63112;SDS011;49206;48.020;21.378;2023-10-31T04:12:02;10.80;;;6.10;;
63112;SDS011;49206;48.020;21.378;2023-10-31T04:13:04;10.23;;;6.50;;
63112;SDS011;49206;48.020;21.378;2023-10-31T04:14:07;11.40;;;6.97;;
63112;SDS011;49206;48.020;21.378;2023-10-31T04:15:10;9.65;;;6.25;;
63112;SDS011;49206;48.020;21.378;2023-10-31T04:16:13;10.57;;;6.45;;
63112;SDS011;49206;48.020;21.378;2023-10-31T04:17:16;13.85;;;7.00;;
63112;SDS011;49206;48.020;21.378;2023-10-31T04:18:19;11.73;;;6.57;;
63112;SDS011;49206;48.020;21.378;2023-10-31T04:19:24;13.88;;;6.78;;
63112;SDS011;49206;48.020;21.378;2023-10-31T04:20:27;14.05;;;7.00;;
63112;SDS011;49206;48.020;21.378;2023-10-31T04:21:30;10.35;;;6.50;;
63112;SDS011;49206;48.020;21.378;2023-10-31T04:22:33;10.63;;;6.43;;
63112;SDS011;49206;48.020;21.378;2023-10-31T04:23:35;12.55;;;6.65;;
63112;SDS011;49206;48.020;21.378;2023-10-31T04:24:41;13.90;;;5.63;;
63112;SDS011;49206;48.020;21.378;2023-10-31T04:25:43;9.93;;;6.63;;
63112;SDS011;49206;48.020;21.378;2023-10-31T04:26:46;9.60;;;5.97;;
63112;SDS011;49206;48.020;21.378;2023-10-31T04:27:49;9.82;;;6.28;;
63112;SDS011;49206;48.020;21.378;2023-10-31T04:28:52;13.43;;;6.30;;
63112;SDS011;49206;48.020;21.378;2023-10-31T04:29:55;9.48;;;6.47;;
63112;SDS011;49206;48.020;21.378;2023-10-31T04:30:58;11.35;;;6.35;;
63112;SDS011;49206;48.020;21.378;2023-10-31T04:32:01;12.98;;;6.55;;
63112;SDS011;49206;48.020;21.378;2023-10-31T04:33:04;10.82;;;6.30;;
63112;SDS011;49206;48.020;21.378;2023-10-31T04:34:07;12.10;;;7.20;;
63112;SDS011;49206;48.020;21.378;2023-10-31T04:35:10;8.32;;;5.88;;
63112;SDS011;49206;48.020;21.378;2023-10-31T04:36:13;14.38;;;6.25;;
63112;SDS011;49206;48.020;21.378;2023-10-31T04:37:16;13.15;;;6.35;;
63112;SDS011;49206;48.020;21.378;2023-10-31T04:38:19;10.95;;;7.03;;
63112;SDS011;49206;48.020;21.378;2023-10-31T04:39:22;11.93;;;6.07;;
63112;SDS011;49206;48.020;21.378;2023-10-31T04:40:25;11.27;;;6.88;;
63112;SDS011;49206;48.020;21.378;2023-10-31T04:41:28;8.65;;;5.80;;
63112;SDS011;49206;48.020;21.378;2023-10-31T04:42:33;13.75;;;6.53;;
63112;SDS011;49206;48.020;21.378;2023-10-31T04:43:36;10.52;;;6.80;;
63112;SDS011;49206;48.020;21.378;2023-10-31T04:44:41;11.40;;;6.38;;
63112;SDS011;49206;48.020;21.378;2023-10-31T04:45:44;11.80;;;6.80;;
63112;SDS011;49206;48.020;21.378;2023-10-31T04:46:46;11.15;;;6.05;;
63112;SDS011;49206;48.020;21.378;2023-10-31T04:47:50;12.88;;;5.55;;
63112;SDS011;49206;48.020;21.378;2023-10-31T04:48:53;12.85;;;6.50;;
63112;SDS011;49206;48.020;21.378;2023-10-31T04:49:59;7.72;;;5.30;;
63112;SDS011;49206;48.020;21.378;2023-10-31T04:51:01;11.75;;;5.95;;
63112;SDS011;49206;48.020;21.378;2023-10-31T04:52:04;11.70;;;6.28;;
63112;SDS011;49206;48.020;21.378;2023-10-31T04:53:07;11.55;;;6.60;;
63112;SDS011;49206;48.020;21.378;2023-10-31T04:54:10;12.20;;;6.90;;
63112;SDS011;49206;48.020;21.378;2023-10-31T04:55:13;10.25;;;6.38;;
63112;SDS011;49206;48.020;21.378;2023-10-31T04:56:19;10.02;;;5.43;;
63112;SDS011;49206;48.020;21.378;2023-10-31T04:57:22;9.23;;;5.97;;
63112;SDS011;49206;48.020;21.378;2023-10-31T04:58:25;12.75;;;6.65;;
63112;SDS011;49206;48.020;21.378;2023-10-31T04:59:28;12.88;;;6.43;;
63112;SDS011;49206;48.020;21.378;2023-10-31T05:00:31;10.98;;;6.72;;
63112;SDS011;49206;48.020;21.378;2023-10-31T05:01:34;12.25;;;6.15;;
63112;SDS011;49206;48.020;21.378;2023-10-31T05:02:37;12.60;;;6.65;;
63112;SDS011;49206;48.020;21.378;2023-10-31T05:03:41;12.45;;;6.32;;
63112;SDS011;49206;48.020;21.378;2023-10-31T05:05:18;9.15;;;6.13;;
63112;SDS011;49206;48.020;21.378;2023-10-31T05:06:22;12.20;;;6.20;;
63112;SDS011;49206;48.020;21.378;2023-10-31T05:07:25;12.98;;;6.85;;
63112;SDS011;49206;48.020;21.378;2023-10-31T05:08:28;13.18;;;6.63;;
63112;SDS011;49206;48.020;21.378;2023-10-31T05:09:30;10.75;;;5.75;;
63112;SDS011;49206;48.020;21.378;2023-10-31T05:10:33;10.70;;;6.57;;
63112;SDS011;49206;48.020;21.378;2023-10-31T05:11:36;9.70;;;6.00;;
63112;SDS011;49206;48.020;21.378;2023-10-31T05:12:39;11.23;;;6.10;;
63112;SDS011;49206;48.020;21.378;2023-10-31T05:13:42;13.40;;;6.28;;
63112;SDS011;49206;48.020;21.378;2023-10-31T05:14:44;12.82;;;6.40;;
63112;SDS011;49206;48.020;21.378;2023-10-31T05:15:47;11.85;;;6.30;;
63112;SDS011;49206;48.020;21.378;2023-10-31T05:16:50;11.68;;;6.78;;
63112;SDS011;49206;48.020;21.378;2023-10-31T05:17:53;11.88;;;5.82;;
63112;SDS011;49206;48.020;21.378;2023-10-31T05:18:58;11.98;;;6.28;;
63112;SDS011;49206;48.020;21.378;2023-10-31T05:20:07;13.18;;;6.35;;
63112;SDS011;49206;48.020;21.378;2023-10-31T05:21:11;13.05;;;5.95;;
63112;SDS011;49206;48.020;21.378;2023-10-31T05:22:14;10.02;;;5.70;;
63112;SDS011;49206;48.020;21.378;2023-10-31T05:23:18;8.88;;;6.00;;
63112;SDS011;49206;48.020;21.378;2023-10-31T05:24:21;9.57;;;6.00;;
63112;SDS011;49206;48.020;21.378;2023-10-31T05:25:24;11.63;;;6.47;;
63112;SDS011;49206;48.020;21.378;2023-10-31T05:26:54;10.35;;;6.20;;
63112;SDS011;49206;48.020;21.378;2023-10-31T05:28:17;12.57;;;6.40;;
63112;SDS011;49206;48.020;21.378;2023-10-31T05:29:20;12.25;;;6.30;;
63112;SDS011;49206;48.020;21.378;2023-10-31T05:30:23;9.45;;;6.13;;
63112;SDS011;49206;48.020;21.378;2023-10-31T05:31:26;10.48;;;6.72;;
63112;SDS011;49206;48.020;21.378;2023-10-31T05:32:29;14.07;;;6.38;;
63112;SDS011;49206;48.020;21.378;2023-10-31T05:33:32;11.68;;;6.35;;
63112;SDS011;49206;48.020;21.378;2023-10-31T05:34:34;12.68;;;7.07;;
63112;SDS011;49206;48.020;21.378;2023-10-31T05:35:37;13.65;;;6.30;;
63112;SDS011;49206;48.020;21.378;2023-10-31T05:36:40;12.10;;;7.00;;
63112;SDS011;49206;48.020;21.378;2023-10-31T05:37:43;9.40;;;6.47;;
63112;SDS011;49206;48.020;21.378;2023-10-31T05:38:50;13.52;;;7.03;;
63112;SDS011;49206;48.020;21.378;2023-10-31T05:39:53;13.30;;;6.85;;
63112;SDS011;49206;48.020;21.378;2023-10-31T05:40:56;12.93;;;7.10;;
63112;SDS011;49206;48.020;21.378;2023-10-31T05:41:58;11.40;;;7.30;;
63112;SDS011;49206;48.020;21.378;2023-10-31T05:43:02;11.77;;;6.38;;
63112;SDS011;49206;48.020;21.378;2023-10-31T05:44:05;11.82;;;6.55;;
63112;SDS011;49206;48.020;21.378;2023-10-31T05:45:08;11.65;;;6.90;;
63112;SDS011;49206;48.020;21.378;2023-10-31T05:46:12;10.23;;;6.93;;
63112;SDS011;49206;48.020;21.378;2023-10-31T05:47:16;15.60;;;7.70;;
63112;SDS011;49206;48.020;21.378;2023-10-31T05:48:19;9.32;;;6.82;;
63112;SDS011;49206;48.020;21.378;2023-10-31T05:49:27;13.82;;;7.35;;
63112;SDS011;49206;48.020;21.378;2023-10-31T05:50:30;10.82;;;6.90;;
63112;SDS011;49206;48.020;21.378;2023-10-31T05:51:34;14.45;;;8.25;;
63112;SDS011;49206;48.020;21.378;2023-10-31T05:52:45;11.43;;;7.18;;
63112;SDS011;49206;48.020;21.378;2023-10-31T05:53:48;15.48;;;7.82;;
63112;SDS011;49206;48.020;21.378;2023-10-31T05:54:51;13.68;;;8.02;;
63112;SDS011;49206;48.020;21.378;2023-10-31T05:55:53;12.90;;;7.50;;
63112;SDS011;49206;48.020;21.378;2023-10-31T05:56:56;11.00;;;7.53;;
63112;SDS011;49206;48.020;21.378;2023-10-31T05:58:01;12.13;;;7.00;;
63112;SDS011;49206;48.020;21.378;2023-10-31T05:59:04;13.95;;;7.45;;
63112;SDS011;49206;48.020;21.378;2023-10-31T06:00:07;12.27;;;6.88;;
63112;SDS011;49206;48.020;21.378;2023-10-31T06:01:13;10.77;;;6.50;;
63112;SDS011;49206;48.020;21.378;2023-10-31T06:02:16;11.68;;;6.60;;
63112;SDS011;49206;48.020;21.378;2023-10-31T06:03:19;11.50;;;6.70;;
63112;SDS011;49206;48.020;21.378;2023-10-31T06:04:22;12.02;;;7.28;;
63112;SDS011;49206;48.020;21.378;2023-10-31T06:05:29;12.77;;;6.50;;
63112;SDS011;49206;48.020;21.378;2023-10-31T06:06:32;12.38;;;6.95;;
63112;SDS011;49206;48.020;21.378;2023-10-31T06:07:35;10.07;;;6.03;;
63112;SDS011;49206;48.020;21.378;2023-10-31T06:08:38;12.25;;;6.75;;
63112;SDS011;49206;48.020;21.378;2023-10-31T06:09:41;10.52;;;6.38;;
63112;SDS011;49206;48.020;21.378;2023-10-31T06:10:44;11.38;;;7.18;;
63112;SDS011;49206;48.020;21.378;2023-10-31T06:11:51;11.75;;;6.65;;
63112;SDS011;49206;48.020;21.378;2023-10-31T06:12:55;13.50;;;7.03;;
63112;SDS011;49206;48.020;21.378;2023-10-31T06:15:02;12.43;;;6.80;;
63112;SDS011;49206;48.020;21.378;2023-10-31T06:16:08;10.35;;;6.68;;
63112;SDS011;49206;48.020;21.378;2023-10-31T06:17:12;9.60;;;6.18;;
63112;SDS011;49206;48.020;21.378;2023-10-31T06:18:15;13.23;;;7.53;;
63112;SDS011;49206;48.020;21.378;2023-10-31T06:19:18;11.43;;;6.32;;
63112;SDS011;49206;48.020;21.378;2023-10-31T06:20:21;11.43;;;6.20;;
63112;SDS011;49206;48.020;21.378;2023-10-31T06:21:24;13.93;;;6.43;;
63112;SDS011;49206;48.020;21.378;2023-10-31T06:22:28;11.02;;;5.88;;